sensor_id;sensor_type;location;lat;lon;timestamp;P1;durP1;ratioP1;P2;durP2;ratioP2
6787;SDS011;3431;47.966;10.268;2022-08-19T00:00:10;9.65;;;8.75;;
6787;SDS011;3431;47.966;10.268;2022-08-19T00:00:36;9.98;;;9.00;;
6787;SDS011;3431;47.966;10.268;2022-08-19T00:00:58;10.00;;;8.82;;
6787;SDS011;3431;47.966;10.268;2022-08-19T00:01:21;9.32;;;8.43;;
6787;SDS011;3431;47.966;10.268;2022-08-19T00:01:45;10.40;;;9.40;;
6787;SDS011;3431;47.966;10.268;2022-08-19T00:02:08;9.77;;;8.88;;
6787;SDS011;3431;47.966;10.268;2022-08-19T00:02:30;10.25;;;9.25;;
6787;SDS011;3431;47.966;10.268;2022-08-19T00:02:51;9.95;;;9.02;;
6787;SDS011;3431;47.966;10.268;2022-08-19T00:03:14;9.68;;;8.75;;
6787;SDS011;3431;47.966;10.268;2022-08-19T00:03:36;9.38;;;8.48;;
6787;SDS011;3431;47.966;10.268;2022-08-19T00:03:57;9.93;;;8.93;;
6787;SDS011;3431;47.966;10.268;2022-08-19T00:04:21;10.10;;;9.10;;
6787;SDS011;3431;47.966;10.268;2022-08-19T00:04:45;9.77;;;8.88;;
6787;SDS011;3431;47.966;10.268;2022-08-19T00:05:10;10.23;;;9.23;;
6787;SDS011;3431;47.966;10.268;2022-08-19T00:05:33;9.93;;;8.93;;
6787;SDS011;3431;47.966;10.268;2022-08-19T00:05:55;9.88;;;8.88;;
6787;SDS011;3431;47.966;10.268;2022-08-19T00:06:17;9.93;;;8.93;;
6787;SDS011;3431;47.966;10.268;2022-08-19T00:06:40;9.80;;;8.80;;
6787;SDS011;3431;47.966;10.268;2022-08-19T00:07:02;10.70;;;9.68;;
6787;SDS011;3431;47.966;10.268;2022-08-19T00:07:25;10.65;;;9.55;;
6787;SDS011;3431;47.966;10.268;2022-08-19T00:07:48;10.45;;;9.45;;
6787;SDS011;3431;47.966;10.268;2022-08-19T00:08:10;10.15;;;9.15;;
6787;SDS011;3431;47.966;10.268;2022-08-19T00:08:32;10.70;;;9.63;;
6787;SDS011;3431;47.966;10.268;2022-08-19T00:08:53;10.43;;;9.40;;
6787;SDS011;3431;47.966;10.268;2022-08-19T00:09:17;10.25;;;9.15;;
6787;SDS011;3431;47.966;10.268;2022-08-19T00:09:41;10.38;;;9.43;;
6787;SDS011;3431;47.966;10.268;2022-08-19T00:10:02;10.38;;;9.32;;
6787;SDS011;3431;47.966;10.268;2022-08-19T00:10:25;9.80;;;8.90;;
6787;SDS011;3431;47.966;10.268;2022-08-19T00:10:48;10.15;;;9.15;;
6787;SDS011;3431;47.966;10.268;2022-08-19T00:11:10;11.07;;;9.43;;
6787;SDS011;3431;47.966;10.268;2022-08-19T00:11:32;12.55;;;10.00;;
6787;SDS011;3431;47.966;10.268;2022-08-19T00:11:58;10.57;;;9.48;;
6787;SDS011;3431;47.966;10.268;2022-08-19T00:12:21;10.75;;;9.70;;
6787;SDS011;3431;47.966;10.268;2022-08-19T00:12:43;9.85;;;8.95;;
6787;SDS011;3431;47.966;10.268;2022-08-19T00:13:04;9.85;;;8.85;;
6787;SDS011;3431;47.966;10.268;2022-08-19T00:13:26;9.70;;;8.80;;
6787;SDS011;3431;47.966;10.268;2022-08-19T00:13:49;10.45;;;9.40;;
6787;SDS011;3431;47.966;10.268;2022-08-19T00:14:12;10.77;;;9.68;;
6787;SDS011;3431;47.966;10.268;2022-08-19T00:14:36;10.68;;;9.57;;
6787;SDS011;3431;47.966;10.268;2022-08-19T00:14:59;10.23;;;9.20;;
6787;SDS011;3431;47.966;10.268;2022-08-19T00:15:21;10.38;;;9.02;;
6787;SDS011;3431;47.966;10.268;2022-08-19T00:15:43;10.82;;;9.32;;
6787;SDS011;3431;47.966;10.268;2022-08-19T00:16:05;10.88;;;9.45;;
6787;SDS011;3431;47.966;10.268;2022-08-19T00:16:29;10.98;;;9.88;;
6787;SDS011;3431;47.966;10.268;2022-08-19T00:16:51;10.25;;;9.23;;
6787;SDS011;3431;47.966;10.268;2022-08-19T00:17:14;10.55;;;9.55;;
6787;SDS011;3431;47.966;10.268;2022-08-19T00:17:36;11.18;;;10.05;;
6787;SDS011;3431;47.966;10.268;2022-08-19T00:17:59;10.93;;;9.82;;
6787;SDS011;3431;47.966;10.268;2022-08-19T00:18:21;10.63;;;9.50;;
6787;SDS011;3431;47.966;10.268;2022-08-19T00:18:42;10.85;;;9.45;;
6787;SDS011;3431;47.966;10.268;2022-08-19T00:19:04;10.50;;;9.50;;
6787;SDS011;3431;47.966;10.268;2022-08-19T00:19:26;10.77;;;9.77;;
6787;SDS011;3431;47.966;10.268;2022-08-19T00:19:49;10.50;;;9.50;;
6787;SDS011;3431;47.966;10.268;2022-08-19T00:20:11;11.13;;;9.65;;
6787;SDS011;3431;47.966;10.268;2022-08-19T00:20:34;10.70;;;9.70;;
6787;SDS011;3431;47.966;10.268;2022-08-19T00:20:55;10.35;;;9.35;;
6787;SDS011;3431;47.966;10.268;2022-08-19T00:21:17;10.65;;;9.55;;
6787;SDS011;3431;47.966;10.268;2022-08-19T00:21:40;10.70;;;9.68;;
6787;SDS011;3431;47.966;10.268;2022-08-19T00:22:01;11.07;;;9.98;;
6787;SDS011;3431;47.966;10.268;2022-08-19T00:22:24;10.98;;;9.88;;
6787;SDS011;3431;47.966;10.268;2022-08-19T00:22:47;11.00;;;9.90;;
6787;SDS011;3431;47.966;10.268;2022-08-19T00:23:09;10.63;;;9.57;;
6787;SDS011;3431;47.966;10.268;2022-08-19T00:23:31;10.70;;;9.52;;
6787;SDS011;3431;47.966;10.268;2022-08-19T00:23:54;11.43;;;10.23;;
6787;SDS011;3431;47.966;10.268;2022-08-19T00:24:18;10.77;;;9.68;;
6787;SDS011;3431;47.966;10.268;2022-08-19T00:24:41;10.93;;;9.60;;
6787;SDS011;3431;47.966;10.268;2022-08-19T00:25:04;10.98;;;9.75;;
6787;SDS011;3431;47.966;10.268;2022-08-19T00:25:26;10.65;;;9.13;;
6787;SDS011;3431;47.966;10.268;2022-08-19T00:25:49;10.50;;;9.40;;
6787;SDS011;3431;47.966;10.268;2022-08-19T00:26:11;11.48;;;9.63;;
6787;SDS011;3431;47.966;10.268;2022-08-19T00:26:33;10.40;;;9.30;;
6787;SDS011;3431;47.966;10.268;2022-08-19T00:26:55;11.10;;;10.05;;
6787;SDS011;3431;47.966;10.268;2022-08-19T00:27:18;10.68;;;9.57;;
6787;SDS011;3431;47.966;10.268;2022-08-19T00:27:40;11.13;;;10.00;;
6787;SDS011;3431;47.966;10.268;2022-08-19T00:28:02;10.87;;;9.77;;
6787;SDS011;3431;47.966;10.268;2022-08-19T00:28:25;10.50;;;9.50;;
6787;SDS011;3431;47.966;10.268;2022-08-19T00:28:46;11.63;;;9.73;;
6787;SDS011;3431;47.966;10.268;2022-08-19T00:29:09;11.20;;;9.48;;
6787;SDS011;3431;47.966;10.268;2022-08-19T00:29:32;10.77;;;9.67;;
6787;SDS011;3431;47.966;10.268;2022-08-19T00:29:55;11.05;;;9.95;;
6787;SDS011;3431;47.966;10.268;2022-08-19T00:30:17;10.30;;;9.30;;
6787;SDS011;3431;47.966;10.268;2022-08-19T00:30:39;10.77;;;9.70;;
6787;SDS011;3431;47.966;10.268;2022-08-19T00:31:01;10.80;;;9.70;;
6787;SDS011;3431;47.966;10.268;2022-08-19T00:31:23;10.40;;;9.30;;
6787;SDS011;3431;47.966;10.268;2022-08-19T00:31:47;10.82;;;9.73;;
6787;SDS011;3431;47.966;10.268;2022-08-19T00:32:10;10.70;;;9.60;;
6787;SDS011;3431;47.966;10.268;2022-08-19T00:32:33;11.68;;;9.30;;
6787;SDS011;3431;47.966;10.268;2022-08-19T00:32:55;11.75;;;9.65;;
6787;SDS011;3431;47.966;10.268;2022-08-19T00:33:17;10.37;;;9.37;;
6787;SDS011;3431;47.966;10.268;2022-08-19T00:33:38;10.18;;;9.18;;
6787;SDS011;3431;47.966;10.268;2022-08-19T00:34:01;11.10;;;9.77;;
6787;SDS011;3431;47.966;10.268;2022-08-19T00:34:24;10.88;;;9.77;;
6787;SDS011;3431;47.966;10.268;2022-08-19T00:34:48;10.68;;;9.57;;
6787;SDS011;3431;47.966;10.268;2022-08-19T00:35:10;9.77;;;8.82;;
6787;SDS011;3431;47.966;10.268;2022-08-19T00:35:33;10.15;;;9.15;;
6787;SDS011;3431;47.966;10.268;2022-08-19T00:35:54;10.75;;;9.65;;
6787;SDS011;3431;47.966;10.268;2022-08-19T00:36:16;10.52;;;9.43;;
6787;SDS011;3431;47.966;10.268;2022-08-19T00:36:38;10.85;;;9.60;;
6787;SDS011;3431;47.966;10.268;2022-08-19T00:37:00;10.57;;;9.48;;
6787;SDS011;3431;47.966;10.268;2022-08-19T00:37:23;10.32;;;9.23;;
6787;SDS011;3431;47.966;10.268;2022-08-19T00:37:47;10.48;;;9.38;;
6787;SDS011;3431;47.966;10.268;2022-08-19T00:38:09;10.52;;;9.43;;
6787;SDS011;3431;47.966;10.268;2022-08-19T00:38:32;10.60;;;9.50;;
6787;SDS011;3431;47.966;10.268;2022-08-19T00:38:54;10.00;;;9.00;;
6787;SDS011;3431;47.966;10.268;2022-08-19T00:39:15;10.40;;;9.30;;
6787;SDS011;3431;47.966;10.268;2022-08-19T00:39:37;11.05;;;9.95;;
6787;SDS011;3431;47.966;10.268;2022-08-19T00:40:00;10.95;;;9.68;;
6787;SDS011;3431;47.966;10.268;2022-08-19T00:40:23;10.23;;;9.15;;
6787;SDS011;3431;47.966;10.268;2022-08-19T00:40:45;10.27;;;9.27;;
6787;SDS011;3431;47.966;10.268;2022-08-19T00:41:07;10.27;;;9.27;;
6787;SDS011;3431;47.966;10.268;2022-08-19T00:41:30;10.60;;;9.32;;
6787;SDS011;3431;47.966;10.268;2022-08-19T00:41:52;11.05;;;9.13;;
6787;SDS011;3431;47.966;10.268;2022-08-19T00:42:14;10.75;;;9.20;;
6787;SDS011;3431;47.966;10.268;2022-08-19T00:42:36;10.75;;;9.65;;
6787;SDS011;3431;47.966;10.268;2022-08-19T00:42:59;10.68;;;9.60;;
6787;SDS011;3431;47.966;10.268;2022-08-19T00:43:21;10.60;;;9.60;;
6787;SDS011;3431;47.966;10.268;2022-08-19T00:43:55;9.93;;;8.93;;
6787;SDS011;3431;47.966;10.268;2022-08-19T00:44:20;10.30;;;9.20;;
6787;SDS011;3431;47.966;10.268;2022-08-19T00:44:44;10.50;;;9.43;;
6787;SDS011;3431;47.966;10.268;2022-08-19T00:45:09;10.40;;;9.30;;
6787;SDS011;3431;47.966;10.268;2022-08-19T00:45:32;10.25;;;9.18;;
6787;SDS011;3431;47.966;10.268;2022-08-19T00:45:54;10.25;;;9.25;;
6787;SDS011;3431;47.966;10.268;2022-08-19T00:46:17;10.55;;;9.45;;
6787;SDS011;3431;47.966;10.268;2022-08-19T00:46:40;10.50;;;9.50;;
6787;SDS011;3431;47.966;10.268;2022-08-19T00:47:04;10.27;;;9.30;;
6787;SDS011;3431;47.966;10.268;2022-08-19T00:47:27;10.33;;;9.33;;
6787;SDS011;3431;47.966;10.268;2022-08-19T00:47:49;10.75;;;9.75;;
6787;SDS011;3431;47.966;10.268;2022-08-19T00:48:11;10.43;;;9.43;;
6787;SDS011;3431;47.966;10.268;2022-08-19T00:48:33;10.13;;;9.13;;
6787;SDS011;3431;47.966;10.268;2022-08-19T00:48:56;10.20;;;9.20;;
6787;SDS011;3431;47.966;10.268;2022-08-19T00:49:23;10.77;;;9.65;;
6787;SDS011;3431;47.966;10.268;2022-08-19T00:49:51;11.35;;;10.25;;
6787;SDS011;3431;47.966;10.268;2022-08-19T00:50:17;10.95;;;9.85;;
6787;SDS011;3431;47.966;10.268;2022-08-19T00:50:42;10.82;;;9.73;;
6787;SDS011;3431;47.966;10.268;2022-08-19T00:51:05;10.10;;;9.10;;
6787;SDS011;3431;47.966;10.268;2022-08-19T00:51:28;10.23;;;9.23;;
6787;SDS011;3431;47.966;10.268;2022-08-19T00:51:53;11.27;;;10.18;;
6787;SDS011;3431;47.966;10.268;2022-08-19T00:52:20;10.95;;;9.85;;
6787;SDS011;3431;47.966;10.268;2022-08-19T00:52:46;11.77;;;9.52;;
6787;SDS011;3431;47.966;10.268;2022-08-19T00:53:11;10.55;;;9.43;;
6787;SDS011;3431;47.966;10.268;2022-08-19T00:53:35;10.55;;;9.50;;
6787;SDS011;3431;47.966;10.268;2022-08-19T00:53:57;10.55;;;9.45;;
6787;SDS011;3431;47.966;10.268;2022-08-19T00:54:21;11.00;;;9.90;;
6787;SDS011;3431;47.966;10.268;2022-08-19T00:54:44;10.80;;;9.68;;
6787;SDS011;3431;47.966;10.268;2022-08-19T00:55:08;11.07;;;9.70;;
6787;SDS011;3431;47.966;10.268;2022-08-19T00:55:32;10.68;;;9.57;;
6787;SDS011;3431;47.966;10.268;2022-08-19T00:55:55;10.67;;;9.57;;
6787;SDS011;3431;47.966;10.268;2022-08-19T00:56:19;11.02;;;9.93;;
6787;SDS011;3431;47.966;10.268;2022-08-19T00:56:42;10.70;;;9.60;;
6787;SDS011;3431;47.966;10.268;2022-08-19T00:57:06;10.38;;;9.38;;
6787;SDS011;3431;47.966;10.268;2022-08-19T00:57:34;11.13;;;9.93;;
6787;SDS011;3431;47.966;10.268;2022-08-19T00:58:00;10.70;;;9.25;;
6787;SDS011;3431;47.966;10.268;2022-08-19T00:58:26;10.40;;;9.25;;
6787;SDS011;3431;47.966;10.268;2022-08-19T00:58:51;10.48;;;9.45;;
6787;SDS011;3431;47.966;10.268;2022-08-19T00:59:13;10.55;;;9.45;;
6787;SDS011;3431;47.966;10.268;2022-08-19T00:59:36;11.40;;;10.20;;
6787;SDS011;3431;47.966;10.268;2022-08-19T01:00:03;10.63;;;9.40;;
6787;SDS011;3431;47.966;10.268;2022-08-19T01:00:27;10.07;;;9.07;;
6787;SDS011;3431;47.966;10.268;2022-08-19T01:00:50;10.00;;;9.00;;
6787;SDS011;3431;47.966;10.268;2022-08-19T01:01:12;10.02;;;9.02;;
6787;SDS011;3431;47.966;10.268;2022-08-19T01:01:34;10.15;;;9.07;;
6787;SDS011;3431;47.966;10.268;2022-08-19T01:01:56;10.18;;;9.18;;
6787;SDS011;3431;47.966;10.268;2022-08-19T01:02:20;10.10;;;9.10;;
6787;SDS011;3431;47.966;10.268;2022-08-19T01:02:42;9.65;;;8.70;;
6787;SDS011;3431;47.966;10.268;2022-08-19T01:03:05;9.98;;;8.98;;
6787;SDS011;3431;47.966;10.268;2022-08-19T01:03:28;9.82;;;8.82;;
6787;SDS011;3431;47.966;10.268;2022-08-19T01:03:50;9.93;;;8.93;;
6787;SDS011;3431;47.966;10.268;2022-08-19T01:04:12;10.57;;;9.48;;
6787;SDS011;3431;47.966;10.268;2022-08-19T01:04:34;10.75;;;9.65;;
6787;SDS011;3431;47.966;10.268;2022-08-19T01:04:56;9.82;;;8.88;;
6787;SDS011;3431;47.966;10.268;2022-08-19T01:05:20;9.45;;;8.55;;
6787;SDS011;3431;47.966;10.268;2022-08-19T01:05:43;9.90;;;8.95;;
6787;SDS011;3431;47.966;10.268;2022-08-19T01:06:06;10.10;;;9.10;;
6787;SDS011;3431;47.966;10.268;2022-08-19T01:06:28;10.30;;;8.80;;
6787;SDS011;3431;47.966;10.268;2022-08-19T01:06:52;9.40;;;8.48;;
6787;SDS011;3431;47.966;10.268;2022-08-19T01:07:15;9.17;;;8.27;;
6787;SDS011;3431;47.966;10.268;2022-08-19T01:07:37;9.75;;;8.77;;
6787;SDS011;3431;47.966;10.268;2022-08-19T01:08:02;10.27;;;9.27;;
6787;SDS011;3431;47.966;10.268;2022-08-19T01:08:25;9.77;;;8.77;;
6787;SDS011;3431;47.966;10.268;2022-08-19T01:08:47;9.43;;;8.48;;
6787;SDS011;3431;47.966;10.268;2022-08-19T01:09:09;9.02;;;8.20;;
6787;SDS011;3431;47.966;10.268;2022-08-19T01:09:31;9.30;;;8.40;;
6787;SDS011;3431;47.966;10.268;2022-08-19T01:09:53;8.98;;;8.07;;
6787;SDS011;3431;47.966;10.268;2022-08-19T01:10:16;9.48;;;8.57;;
6787;SDS011;3431;47.966;10.268;2022-08-19T01:10:43;9.68;;;8.75;;
6787;SDS011;3431;47.966;10.268;2022-08-19T01:11:07;9.75;;;8.75;;
6787;SDS011;3431;47.966;10.268;2022-08-19T01:11:31;9.25;;;8.10;;
6787;SDS011;3431;47.966;10.268;2022-08-19T01:11:57;9.05;;;8.13;;
6787;SDS011;3431;47.966;10.268;2022-08-19T01:12:19;8.98;;;8.07;;
6787;SDS011;3431;47.966;10.268;2022-08-19T01:12:40;8.88;;;7.97;;
6787;SDS011;3431;47.966;10.268;2022-08-19T01:13:03;8.35;;;7.55;;
6787;SDS011;3431;47.966;10.268;2022-08-19T01:13:27;8.43;;;7.63;;
6787;SDS011;3431;47.966;10.268;2022-08-19T01:13:52;8.57;;;7.78;;
6787;SDS011;3431;47.966;10.268;2022-08-19T01:14:14;8.95;;;8.05;;
6787;SDS011;3431;47.966;10.268;2022-08-19T01:14:37;8.68;;;7.88;;
6787;SDS011;3431;47.966;10.268;2022-08-19T01:15:04;9.20;;;8.13;;
6787;SDS011;3431;47.966;10.268;2022-08-19T01:15:29;8.77;;;7.88;;
6787;SDS011;3431;47.966;10.268;2022-08-19T01:15:54;8.50;;;7.70;;
6787;SDS011;3431;47.966;10.268;2022-08-19T01:16:20;8.40;;;7.60;;
6787;SDS011;3431;47.966;10.268;2022-08-19T01:16:45;8.75;;;7.72;;
6787;SDS011;3431;47.966;10.268;2022-08-19T01:17:07;8.77;;;7.82;;
6787;SDS011;3431;47.966;10.268;2022-08-19T01:17:33;8.20;;;7.40;;
6787;SDS011;3431;47.966;10.268;2022-08-19T01:17:56;8.52;;;7.72;;
6787;SDS011;3431;47.966;10.268;2022-08-19T01:18:20;8.48;;;7.68;;
6787;SDS011;3431;47.966;10.268;2022-08-19T01:18:42;8.65;;;7.85;;
6787;SDS011;3431;47.966;10.268;2022-08-19T01:19:06;8.98;;;8.13;;
6787;SDS011;3431;47.966;10.268;2022-08-19T01:19:35;8.68;;;7.88;;
6787;SDS011;3431;47.966;10.268;2022-08-19T01:19:58;8.15;;;7.35;;
6787;SDS011;3431;47.966;10.268;2022-08-19T01:20:22;8.63;;;7.82;;
6787;SDS011;3431;47.966;10.268;2022-08-19T01:20:45;8.73;;;7.82;;
6787;SDS011;3431;47.966;10.268;2022-08-19T01:21:09;8.48;;;7.68;;
6787;SDS011;3431;47.966;10.268;2022-08-19T01:21:37;8.32;;;7.30;;
6787;SDS011;3431;47.966;10.268;2022-08-19T01:22:07;8.50;;;7.38;;
6787;SDS011;3431;47.966;10.268;2022-08-19T01:22:37;8.63;;;7.72;;
6787;SDS011;3431;47.966;10.268;2022-08-19T01:23:04;9.00;;;8.10;;
6787;SDS011;3431;47.966;10.268;2022-08-19T01:23:27;9.07;;;8.18;;
6787;SDS011;3431;47.966;10.268;2022-08-19T01:24:03;8.38;;;7.57;;
6787;SDS011;3431;47.966;10.268;2022-08-19T01:24:25;8.25;;;7.45;;
6787;SDS011;3431;47.966;10.268;2022-08-19T01:24:46;8.55;;;7.65;;
6787;SDS011;3431;47.966;10.268;2022-08-19T01:25:09;8.77;;;7.88;;
6787;SDS011;3431;47.966;10.268;2022-08-19T01:25:32;9.25;;;7.97;;
6787;SDS011;3431;47.966;10.268;2022-08-19T01:26:00;9.82;;;8.38;;
6787;SDS011;3431;47.966;10.268;2022-08-19T01:26:22;9.27;;;8.35;;
6787;SDS011;3431;47.966;10.268;2022-08-19T01:26:45;9.25;;;8.35;;
6787;SDS011;3431;47.966;10.268;2022-08-19T01:27:08;8.60;;;7.80;;
6787;SDS011;3431;47.966;10.268;2022-08-19T01:27:36;8.95;;;8.15;;
6787;SDS011;3431;47.966;10.268;2022-08-19T01:27:58;9.50;;;8.52;;
6787;SDS011;3431;47.966;10.268;2022-08-19T01:28:21;9.68;;;7.90;;
6787;SDS011;3431;47.966;10.268;2022-08-19T01:28:47;9.35;;;8.00;;
6787;SDS011;3431;47.966;10.268;2022-08-19T01:29:11;9.00;;;8.10;;
6787;SDS011;3431;47.966;10.268;2022-08-19T01:29:33;8.98;;;8.07;;
6787;SDS011;3431;47.966;10.268;2022-08-19T01:29:57;8.53;;;7.70;;
6787;SDS011;3431;47.966;10.268;2022-08-19T01:30:23;8.75;;;7.88;;
6787;SDS011;3431;47.966;10.268;2022-08-19T01:30:47;9.60;;;8.70;;
6787;SDS011;3431;47.966;10.268;2022-08-19T01:31:10;8.93;;;8.13;;
6787;SDS011;3431;47.966;10.268;2022-08-19T01:31:34;8.40;;;7.60;;
6787;SDS011;3431;47.966;10.268;2022-08-19T01:31:57;8.50;;;7.70;;
6787;SDS011;3431;47.966;10.268;2022-08-19T01:32:20;8.50;;;7.70;;
6787;SDS011;3431;47.966;10.268;2022-08-19T01:32:41;8.77;;;7.97;;
6787;SDS011;3431;47.966;10.268;2022-08-19T01:33:04;8.25;;;7.45;;
6787;SDS011;3431;47.966;10.268;2022-08-19T01:33:26;7.90;;;7.15;;
6787;SDS011;3431;47.966;10.268;2022-08-19T01:33:48;7.97;;;7.18;;
6787;SDS011;3431;47.966;10.268;2022-08-19T01:34:11;7.95;;;7.18;;
6787;SDS011;3431;47.966;10.268;2022-08-19T01:34:33;8.43;;;7.65;;
6787;SDS011;3431;47.966;10.268;2022-08-19T01:34:54;8.30;;;7.50;;
6787;SDS011;3431;47.966;10.268;2022-08-19T01:35:17;8.13;;;7.43;;
6787;SDS011;3431;47.966;10.268;2022-08-19T01:35:40;7.88;;;7.10;;
6787;SDS011;3431;47.966;10.268;2022-08-19T01:36:03;8.32;;;7.53;;
6787;SDS011;3431;47.966;10.268;2022-08-19T01:36:28;8.20;;;7.38;;
6787;SDS011;3431;47.966;10.268;2022-08-19T01:36:52;8.40;;;7.60;;
6787;SDS011;3431;47.966;10.268;2022-08-19T01:37:14;8.02;;;7.22;;
6787;SDS011;3431;47.966;10.268;2022-08-19T01:37:44;8.30;;;7.50;;
6787;SDS011;3431;47.966;10.268;2022-08-19T01:38:09;8.67;;;7.87;;
6787;SDS011;3431;47.966;10.268;2022-08-19T01:38:41;8.38;;;7.57;;
6787;SDS011;3431;47.966;10.268;2022-08-19T01:39:06;8.30;;;7.47;;
6787;SDS011;3431;47.966;10.268;2022-08-19T01:39:30;8.13;;;7.18;;
6787;SDS011;3431;47.966;10.268;2022-08-19T01:39:53;8.10;;;7.30;;
6787;SDS011;3431;47.966;10.268;2022-08-19T01:40:15;8.32;;;7.53;;
6787;SDS011;3431;47.966;10.268;2022-08-19T01:40:38;8.10;;;7.30;;
6787;SDS011;3431;47.966;10.268;2022-08-19T01:41:00;7.88;;;7.13;;
6787;SDS011;3431;47.966;10.268;2022-08-19T01:41:23;7.78;;;7.07;;
6787;SDS011;3431;47.966;10.268;2022-08-19T01:41:45;8.30;;;7.38;;
6787;SDS011;3431;47.966;10.268;2022-08-19T01:42:07;8.20;;;7.35;;
6787;SDS011;3431;47.966;10.268;2022-08-19T01:42:31;8.13;;;7.32;;
6787;SDS011;3431;47.966;10.268;2022-08-19T01:42:56;8.25;;;7.45;;
6787;SDS011;3431;47.966;10.268;2022-08-19T01:43:18;8.15;;;7.35;;
6787;SDS011;3431;47.966;10.268;2022-08-19T01:43:41;7.78;;;6.95;;
6787;SDS011;3431;47.966;10.268;2022-08-19T01:44:03;8.10;;;7.28;;
6787;SDS011;3431;47.966;10.268;2022-08-19T01:44:26;7.90;;;7.18;;
6787;SDS011;3431;47.966;10.268;2022-08-19T01:44:48;8.07;;;7.30;;
6787;SDS011;3431;47.966;10.268;2022-08-19T01:45:10;7.30;;;6.60;;
6787;SDS011;3431;47.966;10.268;2022-08-19T01:45:33;7.47;;;6.78;;
6787;SDS011;3431;47.966;10.268;2022-08-19T01:45:56;7.70;;;6.97;;
6787;SDS011;3431;47.966;10.268;2022-08-19T01:46:19;7.30;;;6.60;;
6787;SDS011;3431;47.966;10.268;2022-08-19T01:46:41;7.30;;;6.60;;
6787;SDS011;3431;47.966;10.268;2022-08-19T01:47:04;7.38;;;6.68;;
6787;SDS011;3431;47.966;10.268;2022-08-19T01:47:26;7.88;;;7.07;;
6787;SDS011;3431;47.966;10.268;2022-08-19T01:47:49;7.82;;;7.13;;
6787;SDS011;3431;47.966;10.268;2022-08-19T01:48:11;7.70;;;7.00;;
6787;SDS011;3431;47.966;10.268;2022-08-19T01:48:34;7.55;;;6.85;;
6787;SDS011;3431;47.966;10.268;2022-08-19T01:48:56;7.53;;;6.82;;
6787;SDS011;3431;47.966;10.268;2022-08-19T01:49:19;7.57;;;6.88;;
6787;SDS011;3431;47.966;10.268;2022-08-19T01:49:43;8.25;;;7.45;;
6787;SDS011;3431;47.966;10.268;2022-08-19T01:50:05;7.65;;;6.93;;
6787;SDS011;3431;47.966;10.268;2022-08-19T01:50:29;7.35;;;6.65;;
6787;SDS011;3431;47.966;10.268;2022-08-19T01:50:52;7.93;;;7.13;;
6787;SDS011;3431;47.966;10.268;2022-08-19T01:51:14;7.93;;;7.13;;
6787;SDS011;3431;47.966;10.268;2022-08-19T01:51:35;8.43;;;7.55;;
6787;SDS011;3431;47.966;10.268;2022-08-19T01:51:58;7.78;;;7.07;;
6787;SDS011;3431;47.966;10.268;2022-08-19T01:52:22;7.53;;;6.82;;
6787;SDS011;3431;47.966;10.268;2022-08-19T01:52:45;7.55;;;6.75;;
6787;SDS011;3431;47.966;10.268;2022-08-19T01:53:09;6.90;;;6.20;;
6787;SDS011;3431;47.966;10.268;2022-08-19T01:53:32;6.82;;;6.20;;
6787;SDS011;3431;47.966;10.268;2022-08-19T01:53:55;7.22;;;6.57;;
6787;SDS011;3431;47.966;10.268;2022-08-19T01:54:17;7.68;;;6.97;;
6787;SDS011;3431;47.966;10.268;2022-08-19T01:54:40;7.40;;;6.70;;
6787;SDS011;3431;47.966;10.268;2022-08-19T01:55:02;6.50;;;5.90;;
6787;SDS011;3431;47.966;10.268;2022-08-19T01:55:25;7.18;;;6.47;;
6787;SDS011;3431;47.966;10.268;2022-08-19T01:55:48;7.50;;;6.80;;
6787;SDS011;3431;47.966;10.268;2022-08-19T01:56:09;7.95;;;6.63;;
6787;SDS011;3431;47.966;10.268;2022-08-19T01:56:31;6.95;;;6.18;;
6787;SDS011;3431;47.966;10.268;2022-08-19T01:56:53;7.50;;;6.72;;
6787;SDS011;3431;47.966;10.268;2022-08-19T01:57:19;7.50;;;6.68;;
6787;SDS011;3431;47.966;10.268;2022-08-19T01:57:41;7.00;;;6.30;;
6787;SDS011;3431;47.966;10.268;2022-08-19T01:58:06;6.80;;;6.20;;
6787;SDS011;3431;47.966;10.268;2022-08-19T01:58:32;6.85;;;6.25;;
6787;SDS011;3431;47.966;10.268;2022-08-19T01:59:02;6.90;;;6.25;;
6787;SDS011;3431;47.966;10.268;2022-08-19T01:59:25;7.03;;;6.40;;
6787;SDS011;3431;47.966;10.268;2022-08-19T01:59:47;6.78;;;6.15;;
6787;SDS011;3431;47.966;10.268;2022-08-19T02:00:10;7.22;;;6.53;;
6787;SDS011;3431;47.966;10.268;2022-08-19T02:00:36;7.05;;;6.45;;
6787;SDS011;3431;47.966;10.268;2022-08-19T02:00:58;6.78;;;6.18;;
6787;SDS011;3431;47.966;10.268;2022-08-19T02:01:20;6.88;;;6.18;;
6787;SDS011;3431;47.966;10.268;2022-08-19T02:01:41;6.68;;;6.07;;
6787;SDS011;3431;47.966;10.268;2022-08-19T02:02:04;6.32;;;5.72;;
6787;SDS011;3431;47.966;10.268;2022-08-19T02:02:28;6.65;;;6.03;;
6787;SDS011;3431;47.966;10.268;2022-08-19T02:02:49;7.30;;;6.33;;
6787;SDS011;3431;47.966;10.268;2022-08-19T02:03:11;7.32;;;6.38;;
6787;SDS011;3431;47.966;10.268;2022-08-19T02:03:34;6.78;;;6.13;;
6787;SDS011;3431;47.966;10.268;2022-08-19T02:03:56;7.10;;;6.47;;
6787;SDS011;3431;47.966;10.268;2022-08-19T02:04:17;7.05;;;6.40;;
6787;SDS011;3431;47.966;10.268;2022-08-19T02:04:39;6.70;;;6.10;;
6787;SDS011;3431;47.966;10.268;2022-08-19T02:05:02;6.30;;;5.70;;
6787;SDS011;3431;47.966;10.268;2022-08-19T02:05:24;6.57;;;5.97;;
6787;SDS011;3431;47.966;10.268;2022-08-19T02:05:46;8.07;;;6.38;;
6787;SDS011;3431;47.966;10.268;2022-08-19T02:06:07;7.05;;;6.40;;
6787;SDS011;3431;47.966;10.268;2022-08-19T02:06:30;6.78;;;6.18;;
6787;SDS011;3431;47.966;10.268;2022-08-19T02:06:53;6.88;;;6.28;;
6787;SDS011;3431;47.966;10.268;2022-08-19T02:07:14;7.05;;;6.38;;
6787;SDS011;3431;47.966;10.268;2022-08-19T02:07:39;7.05;;;6.35;;
6787;SDS011;3431;47.966;10.268;2022-08-19T02:08:04;6.35;;;5.78;;
6787;SDS011;3431;47.966;10.268;2022-08-19T02:08:26;6.65;;;6.05;;
6787;SDS011;3431;47.966;10.268;2022-08-19T02:08:49;6.43;;;5.82;;
6787;SDS011;3431;47.966;10.268;2022-08-19T02:09:11;6.95;;;6.25;;
6787;SDS011;3431;47.966;10.268;2022-08-19T02:09:33;7.28;;;6.57;;
6787;SDS011;3431;47.966;10.268;2022-08-19T02:09:56;7.40;;;6.70;;
6787;SDS011;3431;47.966;10.268;2022-08-19T02:10:19;7.13;;;6.43;;
6787;SDS011;3431;47.966;10.268;2022-08-19T02:10:42;6.88;;;6.18;;
6787;SDS011;3431;47.966;10.268;2022-08-19T02:11:04;6.90;;;6.00;;
6787;SDS011;3431;47.966;10.268;2022-08-19T02:11:29;6.55;;;5.95;;
6787;SDS011;3431;47.966;10.268;2022-08-19T02:11:54;7.43;;;6.72;;
6787;SDS011;3431;47.966;10.268;2022-08-19T02:12:15;6.82;;;6.22;;
6787;SDS011;3431;47.966;10.268;2022-08-19T02:12:37;6.32;;;5.72;;
6787;SDS011;3431;47.966;10.268;2022-08-19T02:13:00;6.45;;;5.85;;
6787;SDS011;3431;47.966;10.268;2022-08-19T02:13:21;6.80;;;6.20;;
6787;SDS011;3431;47.966;10.268;2022-08-19T02:13:46;6.93;;;6.10;;
6787;SDS011;3431;47.966;10.268;2022-08-19T02:14:08;6.32;;;5.60;;
6787;SDS011;3431;47.966;10.268;2022-08-19T02:14:30;7.10;;;6.40;;
6787;SDS011;3431;47.966;10.268;2022-08-19T02:14:54;6.32;;;5.72;;
6787;SDS011;3431;47.966;10.268;2022-08-19T02:15:16;6.35;;;5.75;;
6787;SDS011;3431;47.966;10.268;2022-08-19T02:15:37;6.47;;;5.90;;
6787;SDS011;3431;47.966;10.268;2022-08-19T02:15:59;6.60;;;6.00;;
6787;SDS011;3431;47.966;10.268;2022-08-19T02:16:22;6.90;;;6.25;;
6787;SDS011;3431;47.966;10.268;2022-08-19T02:16:44;6.38;;;5.78;;
6787;SDS011;3431;47.966;10.268;2022-08-19T02:17:05;6.18;;;5.68;;
6787;SDS011;3431;47.966;10.268;2022-08-19T02:17:27;6.25;;;5.65;;
6787;SDS011;3431;47.966;10.268;2022-08-19T02:17:49;6.82;;;6.20;;
6787;SDS011;3431;47.966;10.268;2022-08-19T02:18:12;6.68;;;6.07;;
6787;SDS011;3431;47.966;10.268;2022-08-19T02:18:34;6.20;;;5.60;;
6787;SDS011;3431;47.966;10.268;2022-08-19T02:18:55;6.15;;;5.55;;
6787;SDS011;3431;47.966;10.268;2022-08-19T02:19:17;6.53;;;5.93;;
6787;SDS011;3431;47.966;10.268;2022-08-19T02:19:40;6.40;;;5.82;;
6787;SDS011;3431;47.966;10.268;2022-08-19T02:20:02;5.90;;;5.40;;
6787;SDS011;3431;47.966;10.268;2022-08-19T02:20:24;6.00;;;5.50;;
6787;SDS011;3431;47.966;10.268;2022-08-19T02:20:46;5.90;;;5.40;;